Time;durP1;ratioP1;P1;durP2;ratioP2;P2;SDS_P1;SDS_P2;PMS_P1;PMS_P2;Temp;Humidity;BMP_temperature;BMP_pressure;BME280_temperature;BME280_humidity;BME280_pressure;Samples;Min_cycle;Max_cycle;Signal;HPM_P1;HPM_P2
2023/09/25 00:01:11;;;;;;;24.50;22.40;;;20.20;99.90;;;;;;5068622;28;20037;-61
2023/09/25 00:03:36;;;;;;;25.42;23.17;;;20.30;99.90;;;;;;5070486;28;20406;-63
2023/09/25 00:06:02;;;;;;;24.88;22.67;;;20.20;99.90;;;;;;5070760;28;20049;-61
2023/09/25 00:08:28;;;;;;;24.83;22.70;;;20.10;99.90;;;;;;5056244;28;20076;-61
2023/09/25 00:10:54;;;;;;;24.63;22.60;;;20.10;99.90;;;;;;5066174;28;20110;-61
2023/09/25 00:13:19;;;;;;;24.77;22.73;;;20.30;99.90;;;;;;5070660;28;20501;-61
2023/09/25 00:15:46;;;;;;;25.92;23.73;;;20.20;99.90;;;;;;5070116;28;20109;-61
2023/09/25 00:18:13;;;;;;;23.98;22.02;;;20.10;99.90;;;;;;5070710;28;20041;-61
2023/09/25 00:20:39;;;;;;;24.00;22.05;;;20.20;99.90;;;;;;5070463;28;20105;-61
2023/09/25 00:23:05;;;;;;;25.60;23.25;;;20.40;99.90;;;;;;5070368;28;20115;-61
2023/09/25 00:25:31;;;;;;;26.10;23.75;;;20.30;99.90;;;;;;5070024;28;20159;-61
2023/09/25 00:27:58;;;;;;;26.65;24.38;;;20.10;99.90;;;;;;5070177;28;20040;-61
2023/09/25 00:30:24;;;;;;;26.23;24.08;;;20.20;99.90;;;;;;5069887;28;20036;-61
2023/09/25 00:32:50;;;;;;;28.13;25.73;;;20.20;99.90;;;;;;5069898;28;20383;-61
2023/09/25 00:35:17;;;;;;;27.92;25.48;;;20.00;99.90;;;;;;5070229;28;20608;-61
2023/09/25 00:37:43;;;;;;;27.98;25.67;;;19.90;99.90;;;;;;5060942;28;20045;-61
2023/09/25 00:40:18;;;;;;;27.20;24.83;;;20.10;99.90;;;;;;5050167;28;20044;-61
2023/09/25 00:42:53;;;;;;;27.05;24.75;;;20.00;99.90;;;;;;5049986;28;20090;-61
2023/09/25 00:45:19;;;;;;;27.95;25.65;;;19.90;99.90;;;;;;5049599;28;20537;-61
2023/09/25 00:47:45;;;;;;;27.27;25.08;;;20.00;99.90;;;;;;5049694;28;20037;-61
2023/09/25 00:50:12;;;;;;;28.42;25.88;;;19.90;99.90;;;;;;5049473;28;20140;-61
2023/09/25 00:52:43;;;;;;;28.60;26.30;;;19.90;99.90;;;;;;5049691;28;20057;-61
2023/09/25 00:55:09;;;;;;;28.73;26.40;;;20.00;99.90;;;;;;5049522;28;20041;-61
2023/09/25 00:57:37;;;;;;;29.40;27.10;;;19.90;99.90;;;;;;5049399;28;20041;-61
2023/09/25 01:00:04;;;;;;;31.17;28.67;;;19.80;99.90;;;;;;5049340;28;20072;-61
2023/09/25 01:02:31;;;;;;;31.63;29.02;;;19.60;99.90;;;;;;5049714;28;20142;-60
2023/09/25 01:05:00;;;;;;;31.33;28.80;;;19.50;99.90;;;;;;5049603;28;20033;-61
2023/09/25 01:07:25;;;;;;;30.52;28.05;;;19.40;99.90;;;;;;5057693;28;20079;-61
2023/09/25 01:10:09;;;;;;;29.98;27.65;;;19.30;99.90;;;;;;5060734;28;20048;-61
2023/09/25 01:12:37;;;;;;;30.52;28.02;;;19.50;99.90;;;;;;5048803;28;20396;-61
2023/09/25 01:15:03;;;;;;;30.40;27.90;;;19.40;99.90;;;;;;5049001;28;20045;-61
2023/09/25 01:17:30;;;;;;;30.10;27.65;;;19.60;99.90;;;;;;5047820;28;20048;-60
2023/09/25 01:19:55;;;;;;;32.00;29.40;;;19.80;99.90;;;;;;5049537;28;20037;-61
2023/09/25 01:22:21;;;;;;;31.42;29.02;;;19.30;99.90;;;;;;5049350;28;20280;-61
2023/09/25 01:24:47;;;;;;;30.67;28.08;;;19.30;99.90;;;;;;5048026;28;20111;-61
2023/09/25 01:27:12;;;;;;;29.63;27.33;;;19.40;99.90;;;;;;5048962;28;20045;-61
2023/09/25 01:29:38;;;;;;;31.27;28.58;;;19.70;99.90;;;;;;5048864;28;20052;-60
2023/09/25 01:32:04;;;;;;;29.70;27.35;;;19.60;99.90;;;;;;5048876;28;20539;-60
2023/09/25 01:34:31;;;;;;;30.92;28.42;;;19.40;99.90;;;;;;5049008;28;20041;-61
2023/09/25 01:36:56;;;;;;;29.38;27.17;;;19.30;99.90;;;;;;5049628;28;20532;-61
2023/09/25 01:39:22;;;;;;;28.90;26.67;;;19.80;99.90;;;;;;5048835;28;20083;-61
2023/09/25 01:41:47;;;;;;;29.58;27.08;;;19.30;99.90;;;;;;5048476;28;20386;-62
2023/09/25 01:44:13;;;;;;;30.17;27.48;;;19.30;99.90;;;;;;5047176;28;20092;-62
2023/09/25 01:46:41;;;;;;;29.50;27.08;;;19.30;99.90;;;;;;5048676;28;20045;-61
2023/09/25 01:49:07;;;;;;;29.33;26.83;;;19.50;99.90;;;;;;5048756;28;20048;-61
2023/09/25 01:51:33;;;;;;;29.58;27.08;;;19.30;99.90;;;;;;5048877;28;20167;-62
2023/09/25 01:53:58;;;;;;;30.13;27.27;;;19.50;99.90;;;;;;5048501;28;20171;-62
2023/09/25 01:56:24;;;;;;;30.38;27.88;;;19.40;99.90;;;;;;5048249;28;20487;-61
2023/09/25 01:58:49;;;;;;;30.17;27.67;;;19.20;99.90;;;;;;5048757;28;20048;-62
2023/09/25 02:01:15;;;;;;;29.10;26.50;;;19.30;99.90;;;;;;5048873;28;20098;-62
2023/09/25 02:03:41;;;;;;;28.75;26.48;;;19.30;99.90;;;;;;5048763;28;20402;-62
2023/09/25 02:06:07;;;;;;;30.65;28.15;;;19.00;99.90;;;;;;5048356;28;20045;-62
2023/09/25 02:08:33;;;;;;;29.42;26.92;;;19.30;99.90;;;;;;5060687;28;20048;-62
2023/09/25 02:10:59;;;;;;;29.02;26.45;;;19.20;99.90;;;;;;5068138;28;20054;-62
2023/09/25 02:13:25;;;;;;;28.23;25.85;;;19.10;99.90;;;;;;5068293;28;20418;-62
2023/09/25 02:15:51;;;;;;;30.40;27.75;;;19.30;99.90;;;;;;5066659;28;20052;-62
2023/09/25 02:18:17;;;;;;;28.38;25.92;;;19.20;99.90;;;;;;5068213;28;20057;-62
2023/09/25 02:20:42;;;;;;;27.95;25.65;;;19.00;99.90;;;;;;5068050;28;20526;-62
2023/09/25 02:23:08;;;;;;;26.65;24.55;;;19.20;99.90;;;;;;5067535;28;20489;-62
2023/09/25 02:25:33;;;;;;;27.27;25.15;;;19.20;99.90;;;;;;5067803;28;20455;-63
2023/09/25 02:27:59;;;;;;;28.00;25.80;;;19.00;99.90;;;;;;5067808;28;20036;-62
2023/09/25 02:30:25;;;;;;;27.60;25.30;;;19.30;99.90;;;;;;5067844;28;20039;-62
2023/09/25 02:32:51;;;;;;;29.13;26.83;;;19.20;99.90;;;;;;5067934;28;20041;-62
2023/09/25 02:35:16;;;;;;;30.20;27.88;;;18.90;99.90;;;;;;5067728;28;20040;-63
2023/09/25 02:37:44;;;;;;;30.25;27.85;;;19.00;99.90;;;;;;5062275;28;20394;-62
2023/09/25 02:40:13;;;;;;;28.90;26.42;;;18.70;99.90;;;;;;5047523;28;20051;-62
2023/09/25 02:42:40;;;;;;;28.35;26.05;;;18.90;99.90;;;;;;5047618;28;20533;-62
2023/09/25 02:45:06;;;;;;;28.27;25.98;;;18.80;99.90;;;;;;5047813;28;20036;-62
2023/09/25 02:47:31;;;;;;;29.35;26.85;;;18.90;99.90;;;;;;5046344;28;20055;-62
2023/09/25 02:49:57;;;;;;;27.40;25.17;;;19.40;99.90;;;;;;5047679;28;20048;-62
2023/09/25 02:52:23;;;;;;;28.48;26.27;;;18.90;99.90;;;;;;5047848;28;20047;-62
2023/09/25 02:54:48;;;;;;;27.20;25.08;;;18.80;99.90;;;;;;5048167;28;20075;-62
2023/09/25 02:57:14;;;;;;;28.73;26.40;;;18.90;99.90;;;;;;5047463;28;20063;-62
2023/09/25 02:59:40;;;;;;;30.20;27.70;;;18.90;99.90;;;;;;5047658;28;20045;-62
2023/09/25 03:02:06;;;;;;;29.08;26.77;;;18.80;99.90;;;;;;5047460;28;20047;-62
2023/09/25 03:04:31;;;;;;;28.95;26.63;;;19.00;99.90;;;;;;5047418;28;20072;-62
2023/09/25 03:06:57;;;;;;;30.13;27.55;;;19.30;99.90;;;;;;5047366;28;20147;-62
2023/09/25 03:09:22;;;;;;;29.08;26.75;;;18.70;99.90;;;;;;5066190;28;20070;-61
2023/09/25 03:11:48;;;;;;;31.55;28.83;;;18.90;99.90;;;;;;5067078;28;20040;-61
2023/09/25 03:14:13;;;;;;;32.65;29.95;;;18.60;99.90;;;;;;5067244;28;20048;-61
2023/09/25 03:16:40;;;;;;;30.42;27.83;;;18.60;99.90;;;;;;5067199;28;20036;-61
2023/09/25 03:19:06;;;;;;;31.52;28.95;;;18.60;99.90;;;;;;5067272;28;20048;-61
2023/09/25 03:21:31;;;;;;;30.95;28.45;;;18.80;99.90;;;;;;5067192;28;20045;-61
2023/09/25 03:23:57;;;;;;;28.85;26.52;;;18.80;99.90;;;;;;5067233;28;20118;-61
2023/09/25 03:26:23;;;;;;;27.90;25.65;;;18.60;99.90;;;;;;5067025;28;20733;-61
2023/09/25 03:28:49;;;;;;;29.02;26.73;;;18.90;99.90;;;;;;5067123;28;20075;-61
2023/09/25 03:31:14;;;;;;;27.90;25.75;;;18.70;99.90;;;;;;5067543;28;20044;-61
2023/09/25 03:33:41;;;;;;;27.83;25.60;;;18.80;99.90;;;;;;5067244;28;20489;-61
2023/09/25 03:36:07;;;;;;;27.92;25.52;;;19.00;99.90;;;;;;5070607;28;20092;-61
2023/09/25 03:38:33;;;;;;;28.23;25.92;;;18.90;99.90;;;;;;5059230;28;20148;-61
2023/09/25 03:40:59;;;;;;;27.33;25.13;;;19.00;99.90;;;;;;5051204;28;20068;-61
2023/09/25 03:43:26;;;;;;;27.88;25.58;;;18.80;99.90;;;;;;5051186;28;20578;-61
2023/09/25 03:45:52;;;;;;;28.45;26.13;;;18.90;99.90;;;;;;5050923;28;20041;-61
2023/09/25 03:48:17;;;;;;;29.40;26.85;;;18.90;99.90;;;;;;5051190;28;20091;-61
2023/09/25 03:50:43;;;;;;;29.77;27.45;;;18.80;99.90;;;;;;5050960;28;20045;-61
2023/09/25 03:53:08;;;;;;;29.58;27.20;;;18.80;99.90;;;;;;5049397;28;20080;-61
2023/09/25 03:55:34;;;;;;;31.95;29.42;;;18.90;99.90;;;;;;5050540;28;20059;-61
2023/09/25 03:57:59;;;;;;;30.55;28.15;;;18.90;99.90;;;;;;5050552;28;20041;-61
2023/09/25 04:00:26;;;;;;;32.10;29.50;;;18.90;99.90;;;;;;5050416;28;20402;-61
2023/09/25 04:02:53;;;;;;;30.67;28.27;;;18.90;99.90;;;;;;5050701;28;20495;-61
2023/09/25 04:05:18;;;;;;;30.75;28.20;;;18.90;99.90;;;;;;5050688;28;20049;-61
2023/09/25 04:07:44;;;;;;;32.22;29.35;;;18.70;99.90;;;;;;5053060;28;20044;-60
2023/09/25 04:10:10;;;;;;;30.67;28.05;;;18.80;99.90;;;;;;5070102;28;20510;-61
2023/09/25 04:12:36;;;;;;;31.10;28.60;;;18.60;99.90;;;;;;5070366;28;20051;-61
2023/09/25 04:15:24;;;;;;;30.45;28.10;;;18.60;99.90;;;;;;5070618;28;20045;-62
2023/09/25 04:17:52;;;;;;;29.52;27.08;;;18.90;99.90;;;;;;5071081;28;20080;-61
2023/09/25 04:20:24;;;;;;;31.33;28.83;;;18.70;99.90;;;;;;5070554;28;20041;-61
2023/09/25 04:22:50;;;;;;;31.42;29.00;;;19.00;99.90;;;;;;5068861;28;20033;-61
2023/09/25 04:25:19;;;;;;;33.28;30.48;;;18.70;99.90;;;;;;5069899;28;20122;-61
2023/09/25 04:27:48;;;;;;;33.15;30.45;;;18.90;99.90;;;;;;5070275;28;20079;-61
2023/09/25 04:30:15;;;;;;;32.08;29.38;;;18.80;99.90;;;;;;5070023;28;20040;-61
2023/09/25 04:32:44;;;;;;;33.25;30.25;;;18.80;99.90;;;;;;5070455;28;20187;-61
2023/09/25 04:35:12;;;;;;;32.08;28.80;;;18.80;99.90;;;;;;5069889;28;20506;-61
2023/09/25 04:37:38;;;;;;;32.00;29.30;;;19.00;99.90;;;;;;5068436;28;20063;-62
2023/09/25 04:40:15;;;;;;;32.50;29.30;;;18.90;99.90;;;;;;5049653;28;20041;-61
2023/09/25 04:42:42;;;;;;;32.05;29.35;;;19.10;99.90;;;;;;5048821;28;20201;-61
2023/09/25 04:45:13;;;;;;;33.13;30.13;;;19.10;99.90;;;;;;5050234;28;20132;-61
2023/09/25 04:47:42;;;;;;;32.03;29.33;;;18.90;99.90;;;;;;5049232;28;20552;-61
2023/09/25 04:50:09;;;;;;;31.52;28.85;;;19.10;99.90;;;;;;5049512;28;20068;-61
2023/09/25 04:52:42;;;;;;;31.48;28.58;;;18.90;99.90;;;;;;5050107;28;20404;-60
2023/09/25 04:55:12;;;;;;;30.88;28.27;;;19.10;99.90;;;;;;5049875;28;20834;-61
2023/09/25 04:57:45;;;;;;;30.92;28.30;;;18.90;99.90;;;;;;5049773;28;20099;-61
2023/09/25 05:02:45;;;;;;;31.13;28.48;;;19.00;99.90;;;;;;5049795;28;20052;-61
2023/09/25 05:05:12;;;;;;;29.52;27.13;;;19.10;99.90;;;;;;5049735;28;20048;-61
2023/09/25 05:07:39;;;;;;;30.02;27.60;;;19.00;99.90;;;;;;5050354;28;20044;-61
2023/09/25 05:10:05;;;;;;;29.90;27.55;;;19.00;99.90;;;;;;5068614;28;20051;-61
2023/09/25 05:12:31;;;;;;;29.05;26.75;;;19.30;99.90;;;;;;5067608;28;20052;-62
2023/09/25 05:14:56;;;;;;;30.13;27.67;;;19.20;99.90;;;;;;5067811;28;20040;-61
2023/09/25 05:17:22;;;;;;;31.02;28.42;;;18.90;99.90;;;;;;5069057;28;20041;-62
2023/09/25 05:19:47;;;;;;;30.15;27.75;;;19.30;99.90;;;;;;5069491;28;20482;-60
2023/09/25 05:22:13;;;;;;;30.13;27.75;;;19.20;99.90;;;;;;5069317;28;20040;-61
2023/09/25 05:24:38;;;;;;;30.88;28.27;;;19.20;99.90;;;;;;5069246;28;20502;-61
2023/09/25 05:27:05;;;;;;;29.80;27.40;;;19.30;99.90;;;;;;5069115;28;20544;-61
2023/09/25 05:29:30;;;;;;;28.88;26.50;;;19.00;99.90;;;;;;5069220;28;20204;-62
2023/09/25 05:31:56;;;;;;;29.27;26.88;;;19.00;99.90;;;;;;5068999;28;20075;-62
2023/09/25 05:34:21;;;;;;;27.95;25.85;;;19.30;99.90;;;;;;5069250;28;20032;-62
2023/09/25 05:36:47;;;;;;;29.30;27.08;;;19.10;99.90;;;;;;5069250;28;20088;-63
2023/09/25 05:39:12;;;;;;;30.33;27.92;;;19.10;99.90;;;;;;5055421;28;20411;-63
2023/09/25 05:41:38;;;;;;;31.23;28.77;;;19.30;99.90;;;;;;5049246;28;20045;-63
2023/09/25 05:44:04;;;;;;;31.58;28.75;;;19.10;99.90;;;;;;5049285;28;20670;-62
2023/09/25 05:46:30;;;;;;;32.83;30.08;;;19.30;99.90;;;;;;5048972;28;20059;-63
2023/09/25 05:48:57;;;;;;;30.77;28.38;;;19.20;99.90;;;;;;5048742;28;20056;-63
2023/09/25 05:51:22;;;;;;;32.47;29.63;;;19.20;99.90;;;;;;5049044;28;20144;-63
2023/09/25 05:53:48;;;;;;;30.95;28.42;;;19.30;99.90;;;;;;5048675;28;20124;-62
2023/09/25 05:56:13;;;;;;;30.95;28.45;;;19.30;99.90;;;;;;5048408;28;20045;-63
2023/09/25 05:58:39;;;;;;;32.60;29.52;;;19.30;99.90;;;;;;5048581;28;20036;-63
2023/09/25 06:01:05;;;;;;;32.53;29.63;;;19.30;99.90;;;;;;5048335;28;20376;-63
2023/09/25 06:03:31;;;;;;;31.45;28.85;;;19.40;99.90;;;;;;5048379;28;20067;-63
2023/09/25 06:05:57;;;;;;;31.67;29.08;;;19.20;99.90;;;;;;5048551;28;20140;-63
2023/09/25 06:08:23;;;;;;;33.78;30.73;;;19.30;99.90;;;;;;5049458;28;20049;-63
2023/09/25 06:10:50;;;;;;;31.42;28.63;;;19.50;99.90;;;;;;5062093;28;20414;-62
2023/09/25 06:13:16;;;;;;;28.95;26.65;;;19.40;99.90;;;;;;5067994;28;20044;-63
2023/09/25 06:15:46;;;;;;;30.00;27.55;;;19.50;99.90;;;;;;5057489;28;20044;-63
2023/09/25 06:18:11;;;;;;;30.25;27.40;;;19.60;99.90;;;;;;5058428;28;20049;-63
2023/09/25 06:20:39;;;;;;;29.27;27.02;;;19.40;99.90;;;;;;5055480;28;20044;-63
2023/09/25 06:23:07;;;;;;;28.08;25.88;;;19.90;99.90;;;;;;5052270;28;20044;-63
2023/09/25 06:25:33;;;;;;;28.55;26.35;;;19.70;99.90;;;;;;5059379;28;20040;-62
2023/09/25 06:28:00;;;;;;;27.27;25.08;;;19.80;99.90;;;;;;5055092;28;20088;-61
2023/09/25 06:30:27;;;;;;;27.50;25.30;;;20.00;99.90;;;;;;5056950;28;20076;-63
2023/09/25 06:32:52;;;;;;;27.38;25.08;;;19.80;99.90;;;;;;5057650;28;20525;-63
2023/09/25 06:35:18;;;;;;;25.75;23.73;;;20.10;99.90;;;;;;5048962;28;20045;-63
2023/09/25 06:37:44;;;;;;;27.42;25.23;;;20.00;99.90;;;;;;5050251;28;20203;-63
2023/09/25 06:40:10;;;;;;;25.55;23.45;;;20.00;99.90;;;;;;5050816;28;21374;-61
2023/09/25 06:42:39;;;;;;;24.98;22.95;;;20.00;99.90;;;;;;5056326;28;20040;-60
2023/09/25 06:45:05;;;;;;;27.30;24.95;;;20.20;99.90;;;;;;5049575;28;20056;-61
2023/09/25 06:47:33;;;;;;;24.17;22.08;;;19.90;99.90;;;;;;5051663;28;20044;-62
2023/09/25 06:49:58;;;;;;;24.55;22.45;;;20.20;99.90;;;;;;5049235;28;20052;-63
2023/09/25 06:52:24;;;;;;;24.98;22.98;;;20.30;99.90;;;;;;5050865;28;20071;-61
2023/09/25 06:54:49;;;;;;;24.45;22.55;;;20.30;99.90;;;;;;5051305;28;20123;-62
2023/09/25 06:57:15;;;;;;;23.15;21.15;;;20.30;99.90;;;;;;5052258;28;20032;-60
2023/09/25 06:59:40;;;;;;;23.48;21.48;;;20.50;99.90;;;;;;5056175;28;20090;-61
2023/09/25 07:02:06;;;;;;;21.45;19.70;;;20.40;99.90;;;;;;5055915;28;20036;-61
2023/09/25 07:04:32;;;;;;;21.70;20.00;;;20.60;99.90;;;;;;5054738;28;20044;-62
2023/09/25 07:06:57;;;;;;;23.13;21.10;;;20.90;99.90;;;;;;5054011;28;20103;-60
2023/09/25 07:09:23;;;;;;;21.98;20.02;;;20.50;99.90;;;;;;5053896;28;20726;-59
2023/09/25 07:11:49;;;;;;;21.50;19.75;;;20.60;99.90;;;;;;5053715;28;20051;-61
2023/09/25 07:14:15;;;;;;;21.95;20.25;;;20.80;99.90;;;;;;5052954;28;20044;-62
2023/09/25 07:16:40;;;;;;;21.52;19.90;;;20.70;99.90;;;;;;5052570;28;20525;-59
2023/09/25 07:19:08;;;;;;;21.42;19.83;;;20.90;99.90;;;;;;5055466;28;20506;-60
2023/09/25 07:21:35;;;;;;;19.55;17.95;;;20.80;99.90;;;;;;5054678;28;20052;-61
2023/09/25 07:24:01;;;;;;;20.55;18.80;;;20.80;99.90;;;;;;5053030;28;20411;-61
2023/09/25 07:26:26;;;;;;;17.42;16.13;;;20.90;99.90;;;;;;5056028;28;20044;-61
2023/09/25 07:28:52;;;;;;;19.65;18.25;;;20.90;99.90;;;;;;5053267;28;20498;-60
2023/09/25 07:31:26;;;;;;;20.30;18.70;;;21.20;99.90;;;;;;5056037;28;20049;-61
2023/09/25 07:33:55;;;;;;;17.48;16.08;;;21.20;99.90;;;;;;5052736;28;20044;-63
2023/09/25 07:36:21;;;;;;;17.38;15.98;;;21.30;99.90;;;;;;5055355;28;20041;-61
2023/09/25 07:38:47;;;;;;;17.45;16.05;;;21.30;99.90;;;;;;5056442;28;20052;-61
2023/09/25 07:41:13;;;;;;;17.70;16.25;;;21.40;99.90;;;;;;5061364;28;20051;-62
2023/09/25 07:43:39;;;;;;;16.55;14.93;;;21.50;70.90;;;;;;5061927;28;20044;-61
2023/09/25 07:46:05;;;;;;;19.27;17.67;;;21.90;1.00;;;;;;5062186;28;20154;-62
2023/09/25 07:48:31;;;;;;;19.33;17.73;;;21.50;99.90;;;;;;5062034;28;20178;-60
2023/09/25 07:50:58;;;;;;;17.23;15.80;;;21.30;99.90;;;;;;5060261;28;20064;-61
2023/09/25 07:53:25;;;;;;;18.83;17.02;;;21.30;1.00;;;;;;5059274;28;21101;-61
2023/09/25 07:55:53;;;;;;;18.13;16.63;;;21.40;99.90;;;;;;5060030;28;20547;-61
2023/09/25 07:58:19;;;;;;;14.73;13.50;;;22.20;99.90;;;;;;5059776;28;20041;-61
2023/09/25 08:00:46;;;;;;;15.60;14.07;;;21.80;99.90;;;;;;5058715;28;20074;-63
2023/09/25 08:03:17;;;;;;;16.20;15.00;;;22.10;2.90;;;;;;5059901;28;20048;-61
2023/09/25 08:05:46;;;;;;;15.82;14.38;;;22.20;99.90;;;;;;5058330;28;20452;-63
2023/09/25 08:08:12;;;;;;;19.05;17.52;;;22.20;38.60;;;;;;5049963;28;20079;-64
2023/09/25 08:10:41;;;;;;;17.88;16.48;;;22.20;99.90;;;;;;5055578;28;20554;-61
2023/09/25 08:13:08;;;;;;;17.80;16.10;;;22.10;1.00;;;;;;5059147;28;20070;-61
2023/09/25 08:15:35;;;;;;;17.90;16.27;;;22.10;99.90;;;;;;5057712;28;20041;-61
2023/09/25 08:18:01;;;;;;;17.23;15.73;;;22.70;1.00;;;;;;5057039;28;20898;-60
2023/09/25 08:20:27;;;;;;;19.65;18.15;;;22.30;1.00;;;;;;5052471;28;20127;-60
2023/09/25 08:22:54;;;;;;;16.77;15.38;;;22.30;99.90;;;;;;5056928;28;20032;-63
2023/09/25 08:25:20;;;;;;;15.88;14.68;;;22.30;99.90;;;;;;5062459;28;20076;-63
2023/09/25 08:27:48;;;;;;;16.35;15.00;;;22.50;99.90;;;;;;5062546;28;20044;-63
2023/09/25 08:30:16;;;;;;;15.07;13.88;;;22.80;99.90;;;;;;5060235;28;20421;-63
2023/09/25 08:32:41;;;;;;;17.65;16.05;;;22.80;27.80;;;;;;5053376;28;20098;-64
2023/09/25 08:35:09;;;;;;;17.15;15.57;;;23.00;1.00;;;;;;5058706;28;20577;-63
2023/09/25 08:37:35;;;;;;;14.63;13.35;;;22.90;99.90;;;;;;5056971;28;20048;-63
2023/09/25 08:40:01;;;;;;;16.33;14.75;;;23.20;98.80;;;;;;5059207;28;20075;-64
2023/09/25 08:42:27;;;;;;;17.00;15.50;;;23.40;1.00;;;;;;5057717;28;20036;-63
2023/09/25 08:44:55;;;;;;;13.98;12.85;;;23.50;99.90;;;;;;5065307;28;20037;-64
2023/09/25 08:47:22;;;;;;;16.27;14.70;;;23.70;99.90;;;;;;5063705;28;20051;-64
2023/09/25 08:49:51;;;;;;;16.83;15.48;;;23.90;60.60;;;;;;5065969;28;20110;-64
2023/09/25 08:52:17;;;;;;;16.33;14.93;;;23.90;1.00;;;;;;5063277;28;20057;-64
2023/09/25 08:54:44;;;;;;;16.88;15.57;;;24.00;99.90;;;;;;5060997;28;20049;-64
2023/09/25 08:57:11;;;;;;;19.08;17.35;;;23.90;99.90;;;;;;5060543;28;20047;-64
2023/09/25 08:59:38;;;;;;;19.88;18.38;;;23.90;51.50;;;;;;5056546;28;20090;-64
2023/09/25 09:02:06;;;;;;;19.77;18.17;;;23.90;1.00;;;;;;5060264;28;20046;-64
2023/09/25 09:04:32;;;;;;;16.38;14.93;;;23.50;21.10;;;;;;5066826;28;20132;-63
2023/09/25 09:06:57;;;;;;;16.70;15.20;;;23.50;41.60;;;;;;5067551;28;20127;-64
2023/09/25 09:09:23;;;;;;;15.35;14.15;;;23.70;3.60;;;;;;5067178;28;20076;-64
2023/09/25 09:11:50;;;;;;;16.73;15.43;;;23.60;1.00;;;;;;5064933;28;20474;-64
2023/09/25 09:14:41;;;;;;;18.15;16.48;;;24.00;1.00;;;;;;5055578;28;20524;-64
2023/09/25 09:17:09;;;;;;;15.18;13.82;;;23.90;15.60;;;;;;5056865;28;20041;-64
2023/09/25 09:19:43;;;;;;;17.85;16.42;;;23.70;1.00;;;;;;5058409;28;20043;-64
2023/09/25 09:22:11;;;;;;;17.20;15.70;;;23.70;1.00;;;;;;5057353;28;20044;-64
2023/09/25 09:24:38;;;;;;;18.75;17.35;;;23.70;1.00;;;;;;5058735;28;20044;-64
2023/09/25 09:27:07;;;;;;;15.05;13.52;;;23.80;91.80;;;;;;5066067;28;20453;-64
2023/09/25 09:29:42;;;;;;;14.60;13.30;;;23.90;21.60;;;;;;5063938;28;20142;-64
2023/09/25 09:32:08;;;;;;;15.70;14.50;;;23.90;32.30;;;;;;5062940;28;20156;-64
2023/09/25 09:34:38;;;;;;;14.48;13.38;;;24.10;95.10;;;;;;5066908;28;20040;-65
2023/09/25 09:37:09;;;;;;;14.32;13.10;;;24.20;29.30;;;;;;5060371;28;20049;-64
2023/09/25 09:39:36;;;;;;;14.65;13.25;;;24.30;1.00;;;;;;5060072;28;20056;-64
2023/09/25 09:42:08;;;;;;;15.98;14.02;;;24.40;1.00;;;;;;5058236;28;20036;-64
2023/09/25 09:44:37;;;;;;;13.50;12.30;;;24.40;1.00;;;;;;5056028;28;20044;-65
2023/09/25 09:47:07;;;;;;;13.50;12.40;;;24.50;1.00;;;;;;5061066;28;20088;-64
2023/09/25 09:49:41;;;;;;;14.52;13.10;;;24.50;99.90;;;;;;5058439;28;20059;-64
2023/09/25 09:52:07;;;;;;;14.90;13.50;;;24.60;99.90;;;;;;5061055;28;20040;-64
2023/09/25 09:54:37;;;;;;;16.05;14.57;;;24.60;99.90;;;;;;5062509;28;20422;-64
2023/09/25 09:57:03;;;;;;;15.38;14.05;;;24.70;99.90;;;;;;5063847;28;20041;-64
2023/09/25 09:59:29;;;;;;;15.88;14.57;;;24.80;99.90;;;;;;5065432;28;20151;-64
2023/09/25 10:01:57;;;;;;;17.15;15.75;;;24.70;99.90;;;;;;5063015;28;20124;-64
2023/09/25 10:04:24;;;;;;;16.58;15.15;;;24.60;99.90;;;;;;5058188;28;20051;-64
2023/09/25 10:06:58;;;;;;;17.45;15.90;;;24.70;99.90;;;;;;5063715;28;20044;-64
2023/09/25 10:09:26;;;;;;;17.13;15.68;;;24.60;99.90;;;;;;5063508;28;20044;-64
2023/09/25 10:11:54;;;;;;;15.80;14.40;;;24.50;99.90;;;;;;5058709;28;20040;-64
2023/09/25 10:14:21;;;;;;;15.55;14.25;;;24.50;99.90;;;;;;5059651;28;20090;-63
2023/09/25 10:17:02;;;;;;;15.75;14.32;;;24.60;99.90;;;;;;5066033;28;20051;-64
2023/09/25 10:19:47;;;;;;;16.52;14.95;;;24.70;99.90;;;;;;5066217;28;20047;-64
2023/09/25 10:22:30;;;;;;;17.15;15.63;;;24.90;99.90;;;;;;5064796;28;20044;-64
2023/09/25 10:25:04;;;;;;;17.05;15.65;;;24.90;99.90;;;;;;5064688;28;20458;-64
2023/09/25 10:27:31;;;;;;;17.13;15.63;;;25.00;99.90;;;;;;5061330;28;20078;-64
2023/09/25 10:30:07;;;;;;;19.02;17.35;;;24.90;99.90;;;;;;5056089;28;20032;-64
2023/09/25 10:32:36;;;;;;;17.55;16.15;;;25.00;99.90;;;;;;5060287;28;20146;-64
2023/09/25 10:35:40;;;;;;;16.90;15.40;;;24.90;99.90;;;;;;5056253;28;20045;-64
2023/09/25 10:38:10;;;;;;;19.65;18.13;;;25.00;99.90;;;;;;5060396;28;20123;-64
2023/09/25 10:40:36;;;;;;;19.50;17.88;;;25.00;99.90;;;;;;5053135;28;20040;-62
2023/09/25 10:43:03;;;;;;;19.45;17.95;;;25.00;99.90;;;;;;5056872;28;20040;-63
2023/09/25 10:45:29;;;;;;;21.08;19.35;;;24.90;99.90;;;;;;5054934;28;20051;-62
2023/09/25 10:47:55;;;;;;;19.67;17.98;;;24.80;99.90;;;;;;5054520;28;20036;-63
2023/09/25 10:50:22;;;;;;;20.83;19.20;;;24.80;99.90;;;;;;5053478;28;20049;-64
2023/09/25 10:52:47;;;;;;;19.60;17.90;;;24.90;99.90;;;;;;5054347;28;20470;-63
2023/09/25 10:55:14;;;;;;;18.95;17.23;;;25.00;99.90;;;;;;5052986;28;20139;-62
2023/09/25 10:57:40;;;;;;;24.02;22.05;;;24.90;99.90;;;;;;5063170;28;20132;-63
2023/09/25 11:00:11;;;;;;;21.27;19.50;;;24.90;99.90;;;;;;5064692;28;20465;-62
2023/09/25 11:02:36;;;;;;;21.25;19.48;;;24.80;99.90;;;;;;5058785;28;20747;-62
2023/09/25 11:05:02;;;;;;;21.40;19.52;;;24.70;99.90;;;;;;5062800;28;20028;-61
2023/09/25 11:07:29;;;;;;;23.63;21.38;;;24.60;99.90;;;;;;5060818;28;20052;-63
2023/09/25 11:09:55;;;;;;;22.40;20.40;;;24.20;99.90;;;;;;5061257;28;20135;-63
2023/09/25 11:12:21;;;;;;;21.77;19.88;;;24.40;99.90;;;;;;5062325;28;20045;-62
2023/09/25 11:14:47;;;;;;;22.77;20.67;;;24.20;99.90;;;;;;5059372;28;20040;-64
2023/09/25 11:17:13;;;;;;;23.73;21.58;;;24.30;99.90;;;;;;5060294;28;20503;-61
2023/09/25 11:19:45;;;;;;;23.15;21.05;;;24.20;99.90;;;;;;5058058;28;20041;-62
2023/09/25 11:22:11;;;;;;;21.88;19.98;;;24.40;1.00;;;;;;5062099;28;20044;-62
2023/09/25 11:24:37;;;;;;;23.02;21.00;;;24.40;1.00;;;;;;5066015;28;20048;-61
2023/09/25 11:27:08;;;;;;;23.30;21.20;;;24.30;1.00;;;;;;5059812;28;20045;-62
2023/09/25 11:29:35;;;;;;;23.33;21.35;;;24.30;1.00;;;;;;5056419;28;20127;-63
2023/09/25 11:32:02;;;;;;;23.08;21.15;;;24.40;1.00;;;;;;5064073;28;20044;-61
2023/09/25 11:34:29;;;;;;;21.70;19.40;;;24.40;15.20;;;;;;5059335;28;20044;-61
2023/09/25 11:36:54;;;;;;;23.23;21.02;;;24.40;66.30;;;;;;5057441;28;20639;-63
2023/09/25 11:39:20;;;;;;;20.85;18.95;;;24.40;28.30;;;;;;5061919;28;20124;-62
2023/09/25 11:41:45;;;;;;;21.70;19.48;;;24.60;99.90;;;;;;5061963;28;20039;-62
2023/09/25 11:44:12;;;;;;;22.35;20.30;;;24.60;99.90;;;;;;5058217;28;20041;-61
2023/09/25 11:46:37;;;;;;;20.45;18.63;;;24.70;99.90;;;;;;5056833;28;20033;-62
2023/09/25 11:49:03;;;;;;;21.20;19.17;;;24.70;99.90;;;;;;5055419;28;20063;-62
2023/09/25 11:51:29;;;;;;;20.88;19.08;;;24.70;99.90;;;;;;5066679;28;20101;-64
2023/09/25 11:53:54;;;;;;;19.17;17.58;;;24.80;99.90;;;;;;5057342;28;20052;-63
2023/09/25 11:56:21;;;;;;;20.92;18.80;;;24.80;99.90;;;;;;5054179;28;20045;-63
2023/09/25 11:58:46;;;;;;;20.95;18.95;;;24.70;99.90;;;;;;5060007;28;20086;-64
2023/09/25 12:01:12;;;;;;;19.30;17.33;;;24.70;99.90;;;;;;5057785;28;20033;-64
2023/09/25 12:03:41;;;;;;;21.65;19.75;;;24.80;99.90;;;;;;5059583;28;20043;-64
2023/09/25 12:06:06;;;;;;;20.63;18.73;;;25.30;99.90;;;;;;5063098;28;20558;-64
2023/09/25 12:08:35;;;;;;;21.20;19.25;;;24.70;95.20;;;;;;5061335;28;20120;-63
2023/09/25 12:11:00;;;;;;;20.25;18.45;;;24.90;99.90;;;;;;5066611;28;20040;-64
2023/09/25 12:13:26;;;;;;;21.27;19.23;;;24.80;99.90;;;;;;5059292;28;20040;-63
2023/09/25 12:15:52;;;;;;;23.95;21.60;;;24.90;99.90;;;;;;5063225;28;20510;-64
2023/09/25 12:18:18;;;;;;;21.30;19.25;;;24.90;99.90;;;;;;5061479;28;20040;-63
2023/09/25 12:20:44;;;;;;;22.98;20.80;;;24.80;99.90;;;;;;5062026;28;20041;-64
2023/09/25 12:23:09;;;;;;;22.60;20.40;;;24.70;99.90;;;;;;5060515;28;20040;-63
2023/09/25 12:25:36;;;;;;;23.48;21.17;;;24.60;99.90;;;;;;5059830;28;20510;-64
2023/09/25 12:28:05;;;;;;;23.95;21.75;;;24.70;99.90;;;;;;5061963;28;20040;-63
2023/09/25 12:30:31;;;;;;;24.77;22.40;;;24.60;99.90;;;;;;5064573;28;20122;-63